Time;durP1;ratioP1;P1;durP2;ratioP2;P2;SDS_P1;SDS_P2;PMS_P1;PMS_P2;Temp;Humidity;BMP_temperature;BMP_pressure;BME280_temperature;BME280_humidity;BME280_pressure;Samples;Min_cycle;Max_cycle;Signal;HPM_P1;HPM_P2
2022/11/06 00:01:12;;;;;;;0.20;0.20;;;13.90;68.20;;;;;;5034183;28;20026;-77
2022/11/06 00:03:38;;;;;;;0.28;0.28;;;13.90;67.90;;;;;;5034477;28;20037;-78
2022/11/06 00:08:54;;;;;;;0.20;0.20;;;13.90;68.60;;;;;;5034607;28;20554;-78
2022/11/06 00:11:20;;;;;;;0.20;0.20;;;13.90;67.70;;;;;;5033229;28;20533;-78
2022/11/06 00:13:51;;;;;;;0.20;0.20;;;13.90;67.90;;;;;;5033436;28;20018;-75
2022/11/06 00:16:18;;;;;;;0.20;0.20;;;13.90;68.00;;;;;;5017605;28;20112;-75
2022/11/06 00:18:44;;;;;;;0.20;0.20;;;13.90;68.90;;;;;;5024395;28;20025;-75
2022/11/06 00:21:18;;;;;;;0.82;0.20;;;13.90;68.30;;;;;;5024281;28;20032;-75
2022/11/06 00:23:45;;;;;;;0.20;0.20;;;13.90;67.90;;;;;;5039158;28;20033;-75
2022/11/06 00:26:13;;;;;;;0.20;0.20;;;13.80;69.00;;;;;;5042311;28;20033;-75
2022/11/06 00:28:39;;;;;;;0.20;0.20;;;13.80;69.00;;;;;;5018911;28;20077;-75
2022/11/06 00:31:34;;;;;;;0.10;0.10;;;13.70;69.60;;;;;;5037313;28;20044;-75
2022/11/06 00:34:00;;;;;;;0.20;0.20;;;13.70;70.60;;;;;;5021371;28;20392;-75
2022/11/06 00:36:30;;;;;;;0.10;0.10;;;13.70;70.20;;;;;;5018721;28;20025;-75
2022/11/06 00:38:57;;;;;;;0.20;0.20;;;13.70;69.90;;;;;;5023545;28;20067;-75
2022/11/06 00:41:23;;;;;;;0.32;0.20;;;13.60;70.10;;;;;;5041679;28;20029;-75
2022/11/06 00:43:50;;;;;;;0.20;0.20;;;13.60;70.30;;;;;;5026615;28;20028;-75
2022/11/06 00:46:17;;;;;;;1.48;0.20;;;13.60;70.00;;;;;;5053754;28;20028;-75
2022/11/06 00:48:43;;;;;;;0.20;0.20;;;13.60;70.50;;;;;;5035218;28;20016;-76
2022/11/06 00:51:15;;;;;;;0.20;0.20;;;13.60;70.50;;;;;;5034633;28;20525;-75
2022/11/06 00:53:41;;;;;;;0.17;0.17;;;13.60;70.40;;;;;;5052698;28;20031;-75
2022/11/06 00:56:14;;;;;;;0.10;0.10;;;13.60;70.00;;;;;;5044835;28;20033;-75
2022/11/06 00:58:40;;;;;;;0.20;0.20;;;13.60;70.30;;;;;;5036148;28;20022;-75
2022/11/06 01:01:32;;;;;;;0.20;0.20;;;13.60;71.40;;;;;;5031270;28;20022;-75
2022/11/06 01:04:03;;;;;;;0.30;0.30;;;13.50;71.70;;;;;;5022928;28;20045;-75
2022/11/06 01:06:32;;;;;;;0.10;0.10;;;13.50;72.10;;;;;;5028942;28;20467;-75
2022/11/06 01:08:58;;;;;;;0.20;0.20;;;13.50;71.90;;;;;;5043539;28;20036;-75
2022/11/06 01:11:29;;;;;;;0.20;0.20;;;13.40;72.40;;;;;;5034483;28;20025;-75
2022/11/06 01:13:57;;;;;;;2.33;0.30;;;13.40;72.80;;;;;;5031385;28;20069;-75
2022/11/06 01:16:24;;;;;;;0.22;0.20;;;13.30;73.10;;;;;;5049737;28;20021;-76
2022/11/06 01:18:51;;;;;;;0.10;0.10;;;13.40;72.30;;;;;;5048245;28;20566;-75
2022/11/06 01:21:22;;;;;;;0.20;0.20;;;13.30;72.10;;;;;;5030296;28;20026;-75
2022/11/06 01:23:53;;;;;;;0.10;0.10;;;13.40;70.80;;;;;;5046924;28;20032;-75
2022/11/06 01:26:18;;;;;;;0.30;0.30;;;13.50;69.90;;;;;;5047397;28;20031;-76
2022/11/06 01:28:44;;;;;;;0.20;0.20;;;13.50;70.90;;;;;;5029756;28;20045;-75
2022/11/06 01:31:18;;;;;;;0.10;0.10;;;13.50;70.40;;;;;;5030397;28;20751;-76
2022/11/06 01:33:44;;;;;;;0.20;0.20;;;13.50;71.20;;;;;;5047492;28;20040;-75
2022/11/06 01:36:12;;;;;;;0.30;0.30;;;13.50;70.40;;;;;;5016924;28;20036;-75
2022/11/06 01:38:46;;;;;;;0.20;0.20;;;13.50;70.70;;;;;;5027368;28;20025;-75
2022/11/06 01:41:14;;;;;;;0.10;0.10;;;13.40;72.30;;;;;;5010003;28;20430;-75
2022/11/06 01:43:54;;;;;;;0.10;0.10;;;13.40;72.00;;;;;;5028483;28;20386;-75
2022/11/06 01:46:22;;;;;;;0.20;0.20;;;13.40;73.00;;;;;;5009647;28;20338;-75
2022/11/06 01:48:56;;;;;;;0.15;0.15;;;13.30;72.50;;;;;;5028268;28;20026;-75
2022/11/06 01:51:28;;;;;;;0.20;0.20;;;13.30;72.50;;;;;;5027294;28;20030;-75
2022/11/06 01:53:54;;;;;;;0.10;0.10;;;13.30;72.50;;;;;;5027153;28;20116;-75
2022/11/06 01:56:21;;;;;;;0.25;0.25;;;13.30;72.10;;;;;;5010440;28;20041;-75
2022/11/06 01:58:50;;;;;;;0.10;0.10;;;13.30;72.70;;;;;;5028726;28;20029;-75
2022/11/06 02:01:16;;;;;;;0.20;0.20;;;13.20;73.10;;;;;;5027405;28;20487;-75
2022/11/06 02:03:57;;;;;;;2.63;0.20;;;13.20;73.50;;;;;;5028089;28;20060;-75
2022/11/06 02:06:23;;;;;;;0.20;0.20;;;13.20;73.60;;;;;;5008913;28;20056;-75
2022/11/06 02:08:50;;;;;;;0.20;0.20;;;13.20;73.40;;;;;;5044237;28;20472;-75
2022/11/06 02:11:16;;;;;;;0.30;0.30;;;13.10;74.50;;;;;;5027355;28;20022;-75
2022/11/06 02:14:16;;;;;;;0.30;0.30;;;13.10;74.10;;;;;;5044225;28;20053;-75
2022/11/06 02:17:00;;;;;;;0.10;0.10;;;13.10;73.60;;;;;;5026161;28;20018;-75
2022/11/06 02:19:45;;;;;;;0.57;0.20;;;13.10;73.70;;;;;;5029732;28;20032;-75
2022/11/06 02:22:14;;;;;;;0.22;0.22;;;13.10;74.60;;;;;;5007417;28;20029;-75
2022/11/06 02:25:17;;;;;;;0.20;0.20;;;13.10;74.00;;;;;;5010939;28;20111;-75
2022/11/06 02:28:07;;;;;;;1.08;0.20;;;13.10;73.90;;;;;;5009951;28;20049;-75
2022/11/06 02:30:40;;;;;;;0.20;0.20;;;13.10;74.70;;;;;;5025985;28;20065;-75
2022/11/06 02:33:11;;;;;;;0.20;0.20;;;13.10;74.70;;;;;;5044111;28;20029;-75
2022/11/06 02:35:55;;;;;;;0.30;0.30;;;13.10;74.40;;;;;;5015253;28;20040;-74
2022/11/06 02:38:38;;;;;;;0.30;0.30;;;13.10;74.60;;;;;;5027937;28;20067;-75
2022/11/06 02:41:09;;;;;;;0.20;0.20;;;13.10;74.10;;;;;;5014902;28;20025;-75
2022/11/06 02:43:38;;;;;;;0.17;0.17;;;13.20;73.40;;;;;;5028910;28;20033;-75
2022/11/06 02:46:23;;;;;;;0.20;0.20;;;13.20;73.70;;;;;;5024765;28;20021;-75
2022/11/06 02:49:00;;;;;;;0.38;0.20;;;13.20;73.70;;;;;;5029025;28;20026;-75
2022/11/06 02:51:29;;;;;;;0.20;0.20;;;13.20;73.00;;;;;;5007487;28;20095;-75
2022/11/06 02:54:00;;;;;;;0.82;0.20;;;13.20;73.20;;;;;;5009701;28;20033;-74
2022/11/06 02:56:30;;;;;;;0.20;0.20;;;13.20;72.80;;;;;;5024604;28;20033;-75
2022/11/06 02:59:18;;;;;;;0.25;0.25;;;13.30;73.20;;;;;;5009885;28;20032;-75
2022/11/06 03:02:15;;;;;;;0.20;0.20;;;13.30;72.70;;;;;;5023342;28;20021;-75
2022/11/06 03:04:48;;;;;;;0.20;0.20;;;13.30;72.90;;;;;;5006792;28;20030;-75
2022/11/06 03:07:18;;;;;;;0.20;0.20;;;13.30;72.70;;;;;;5027116;28;20120;-75
2022/11/06 03:09:44;;;;;;;0.30;0.30;;;13.20;72.90;;;;;;5040779;28;20056;-75
2022/11/06 03:12:18;;;;;;;0.15;0.15;;;13.20;73.70;;;;;;5027281;28;20495;-75
2022/11/06 03:15:09;;;;;;;0.15;0.10;;;13.20;72.50;;;;;;5025293;28;20235;-75
2022/11/06 03:18:18;;;;;;;0.20;0.20;;;13.20;72.20;;;;;;5027354;28;20037;-75
2022/11/06 03:21:06;;;;;;;0.25;0.25;;;13.20;72.00;;;;;;5012475;28;20084;-75
2022/11/06 03:23:52;;;;;;;0.10;0.10;;;13.20;70.90;;;;;;5011606;28;20030;-75
2022/11/06 03:26:27;;;;;;;0.15;0.15;;;13.20;71.60;;;;;;5027243;28;20022;-75
2022/11/06 03:29:02;;;;;;;0.10;0.10;;;13.20;71.70;;;;;;5010474;28;20071;-75
2022/11/06 03:31:52;;;;;;;0.20;0.20;;;13.20;71.00;;;;;;4998650;28;20041;-75
2022/11/06 03:34:41;;;;;;;0.20;0.20;;;13.30;72.10;;;;;;4998835;28;20037;-75
2022/11/06 03:37:21;;;;;;;0.20;0.20;;;13.20;72.10;;;;;;5011573;28;20532;-75
2022/11/06 03:39:54;;;;;;;0.38;0.32;;;13.10;73.10;;;;;;5033216;28;20018;-79
2022/11/06 03:42:24;;;;;;;0.20;0.20;;;13.10;73.60;;;;;;5032635;28;20060;-79
2022/11/06 03:45:01;;;;;;;0.20;0.20;;;13.00;74.50;;;;;;5012342;28;20113;-79
2022/11/06 03:47:46;;;;;;;0.13;0.13;;;12.90;75.20;;;;;;5032809;28;20088;-78
2022/11/06 03:50:23;;;;;;;0.20;0.20;;;12.90;75.50;;;;;;5029428;28;20018;-78
2022/11/06 03:52:55;;;;;;;0.20;0.20;;;12.80;75.30;;;;;;5014588;28;20109;-79
2022/11/06 03:55:31;;;;;;;0.20;0.20;;;12.90;75.30;;;;;;5012864;28;20025;-78
2022/11/06 03:58:21;;;;;;;0.20;0.20;;;12.90;75.10;;;;;;5015063;28;20036;-78
2022/11/06 04:00:48;;;;;;;0.28;0.28;;;12.90;75.90;;;;;;5025952;28;20037;-78
2022/11/06 04:03:40;;;;;;;0.22;0.22;;;12.90;76.20;;;;;;4998098;28;20025;-78
2022/11/06 04:06:06;;;;;;;0.20;0.20;;;12.90;76.60;;;;;;5040171;28;20024;-78
2022/11/06 04:14:07;;;;;;;0.20;0.20;;;12.90;77.10;;;;;;5054539;28;20089;-79
2022/11/06 04:17:01;;;;;;;0.28;0.28;;;12.80;78.50;;;;;;5054820;28;20025;-79
2022/11/06 04:19:26;;;;;;;0.25;0.25;;;12.70;80.20;;;;;;5037285;28;20029;-79
2022/11/06 04:22:10;;;;;;;0.30;0.30;;;12.70;78.90;;;;;;5054427;28;20017;-78
2022/11/06 04:27:58;;;;;;;0.20;0.20;;;12.40;88.40;;;;;;5054326;28;20106;-79
2022/11/06 04:30:26;;;;;;;0.73;0.30;;;12.40;88.50;;;;;;5036475;28;20056;-79
2022/11/06 04:33:11;;;;;;;0.25;0.25;;;12.30;90.20;;;;;;5053743;28;20112;-79
2022/11/06 04:35:55;;;;;;;0.30;0.30;;;12.20;90.60;;;;;;5027065;28;20387;-79
2022/11/06 04:38:45;;;;;;;0.17;0.17;;;12.00;92.50;;;;;;5034383;28;20054;-79
2022/11/06 04:41:11;;;;;;;0.40;0.30;;;11.90;92.70;;;;;;5052598;28;20471;-79
2022/11/06 04:44:04;;;;;;;0.40;0.40;;;11.80;92.60;;;;;;5034542;28;20033;-79
2022/11/06 04:46:32;;;;;;;;;;;11.70;93.20;;;;;;5033775;28;20387;-79
2022/11/06 04:49:00;;;;;;;0.40;0.40;;;11.50;93.40;;;;;;5052501;28;19904;-79
2022/11/06 04:51:32;;;;;;;0.20;0.20;;;11.30;95.10;;;;;;5052401;28;20044;-79
2022/11/06 04:53:58;;;;;;;0.25;0.25;;;11.30;94.40;;;;;;5034446;28;20163;-79
2022/11/06 04:56:33;;;;;;;0.20;0.20;;;11.30;95.10;;;;;;5052598;28;20043;-78
2022/11/06 04:58:59;;;;;;;0.20;0.20;;;11.30;94.30;;;;;;5052917;28;20017;-79
2022/11/06 05:01:25;;;;;;;0.20;0.20;;;11.40;92.90;;;;;;5052816;28;20471;-79
2022/11/06 05:03:51;;;;;;;0.20;0.20;;;11.40;92.60;;;;;;5053018;28;20028;-79
2022/11/06 05:06:20;;;;;;;0.30;0.30;;;11.50;92.60;;;;;;5020727;28;20079;-79
2022/11/06 05:08:46;;;;;;;0.85;0.30;;;11.60;91.40;;;;;;5032962;28;20025;-79
2022/11/06 05:11:12;;;;;;;0.38;0.38;;;11.70;90.90;;;;;;5032963;28;20018;-79
2022/11/06 05:13:37;;;;;;;3.65;0.28;;;11.70;91.40;;;;;;5032768;28;20025;-78
2022/11/06 05:16:03;;;;;;;0.30;0.30;;;11.70;91.90;;;;;;5014826;28;20462;-79
2022/11/06 05:18:29;;;;;;;0.20;0.20;;;11.60;92.20;;;;;;5032744;28;20490;-79
2022/11/06 05:23:46;;;;;;;0.20;0.20;;;11.50;91.30;;;;;;5032913;28;20100;-79
2022/11/06 05:26:12;;;;;;;0.20;0.20;;;11.60;90.30;;;;;;5032333;28;20045;-79
2022/11/06 05:28:38;;;;;;;0.20;0.20;;;11.70;90.00;;;;;;5047679;28;20084;-79
2022/11/06 05:31:04;;;;;;;0.55;0.30;;;11.80;90.10;;;;;;5032561;28;20032;-79
2022/11/06 05:33:30;;;;;;;0.30;0.30;;;11.80;90.80;;;;;;5032244;28;20030;-79
2022/11/06 05:35:59;;;;;;;0.40;0.40;;;11.70;90.90;;;;;;5032127;28;20026;-79
2022/11/06 05:38:25;;;;;;;0.30;0.30;;;11.70;90.80;;;;;;5032155;28;20061;-79
2022/11/06 05:40:51;;;;;;;0.30;0.30;;;11.70;90.60;;;;;;5032528;28;20056;-79
2022/11/06 05:43:16;;;;;;;0.30;0.30;;;11.70;90.00;;;;;;5032053;28;20033;-79
2022/11/06 05:45:42;;;;;;;0.30;0.30;;;11.70;89.80;;;;;;5032206;28;20114;-78
2022/11/06 05:48:08;;;;;;;0.22;0.22;;;11.80;89.30;;;;;;5032224;28;20084;-79
2022/11/06 05:50:33;;;;;;;0.65;0.45;;;11.80;90.10;;;;;;5032095;28;20053;-79
2022/11/06 05:52:59;;;;;;;0.32;0.32;;;11.70;90.20;;;;;;5031970;28;20113;-79
2022/11/06 05:55:25;;;;;;;0.20;0.20;;;11.70;91.10;;;;;;5047195;28;20021;-79
2022/11/06 05:57:51;;;;;;;0.30;0.30;;;11.70;90.80;;;;;;5031807;28;20499;-79
2022/11/06 06:00:16;;;;;;;0.25;0.25;;;11.70;90.80;;;;;;5032034;28;20075;-79
2022/11/06 06:02:42;;;;;;;0.30;0.30;;;11.60;90.70;;;;;;5031975;28;20026;-79
2022/11/06 06:05:08;;;;;;;0.30;0.30;;;11.70;90.80;;;;;;5031614;28;20502;-78
2022/11/06 06:07:34;;;;;;;1.00;0.30;;;11.60;90.80;;;;;;5031914;28;20080;-79
2022/11/06 06:10:04;;;;;;;0.68;0.38;;;11.60;90.80;;;;;;5031766;28;20120;-79
2022/11/06 06:12:29;;;;;;;0.63;0.57;;;11.60;90.70;;;;;;5031761;28;20533;-79
2022/11/06 06:14:55;;;;;;;0.25;0.25;;;11.60;90.90;;;;;;5031681;28;20045;-78
2022/11/06 06:17:21;;;;;;;0.30;0.30;;;11.70;90.80;;;;;;5032208;28;20013;-78
2022/11/06 06:19:47;;;;;;;0.20;0.20;;;11.70;90.60;;;;;;5051471;28;20389;-79
2022/11/06 06:22:13;;;;;;;0.30;0.30;;;11.60;90.70;;;;;;5051440;28;20025;-78
2022/11/06 06:24:39;;;;;;;0.20;0.20;;;11.70;90.20;;;;;;5051567;28;20021;-78
2022/11/06 06:27:05;;;;;;;0.77;0.40;;;11.70;90.50;;;;;;5033313;28;20032;-79
2022/11/06 06:29:31;;;;;;;0.30;0.30;;;11.70;90.90;;;;;;5051502;28;20029;-78
2022/11/06 06:31:57;;;;;;;0.20;0.20;;;11.70;90.90;;;;;;5033546;28;20426;-79
2022/11/06 06:34:23;;;;;;;0.20;0.20;;;11.70;91.30;;;;;;5033275;28;20063;-78
2022/11/06 06:36:52;;;;;;;1.75;0.35;;;11.70;90.70;;;;;;5032852;28;20480;-79
2022/11/06 06:39:19;;;;;;;0.20;0.20;;;11.70;90.70;;;;;;5031544;28;20022;-79
2022/11/06 06:41:46;;;;;;;0.20;0.20;;;11.70;90.90;;;;;;5033492;28;20100;-79
2022/11/06 06:44:12;;;;;;;0.30;0.30;;;11.70;91.40;;;;;;5013483;28;20022;-78
2022/11/06 06:46:38;;;;;;;0.57;0.57;;;11.70;90.90;;;;;;5031348;28;20072;-78
2022/11/06 06:49:04;;;;;;;0.20;0.20;;;11.70;91.70;;;;;;5013542;28;20507;-78
2022/11/06 06:51:29;;;;;;;0.88;0.30;;;11.70;92.00;;;;;;5031319;28;20049;-79
2022/11/06 06:53:55;;;;;;;0.20;0.20;;;11.70;91.10;;;;;;5031141;28;20033;-79
2022/11/06 06:56:21;;;;;;;0.35;0.35;;;11.70;91.30;;;;;;5013676;28;20414;-79
2022/11/06 06:58:47;;;;;;;0.30;0.30;;;11.80;91.40;;;;;;5013487;28;20056;-78
2022/11/06 07:01:13;;;;;;;0.25;0.25;;;11.80;90.90;;;;;;5031276;28;20020;-78
2022/11/06 07:03:38;;;;;;;0.30;0.30;;;11.80;90.90;;;;;;5031155;28;20108;-78
2022/11/06 07:06:05;;;;;;;0.25;0.25;;;11.90;91.10;;;;;;5013056;28;20030;-79
2022/11/06 07:08:31;;;;;;;0.30;0.30;;;11.90;90.70;;;;;;5031305;28;20481;-78
2022/11/06 07:11:06;;;;;;;0.17;0.17;;;11.90;90.50;;;;;;5034686;28;20040;-78
2022/11/06 07:13:32;;;;;;;0.20;0.20;;;11.90;91.00;;;;;;5035129;28;20487;-78
2022/11/06 07:15:58;;;;;;;0.20;0.20;;;12.00;91.00;;;;;;5050303;28;20033;-79
2022/11/06 07:18:23;;;;;;;0.20;0.20;;;12.00;90.60;;;;;;5035029;28;20022;-79
2022/11/06 07:20:50;;;;;;;0.30;0.30;;;12.00;90.30;;;;;;5034893;28;20025;-78
2022/11/06 07:23:16;;;;;;;0.22;0.22;;;12.10;90.70;;;;;;5034793;28;20483;-78
2022/11/06 07:25:41;;;;;;;0.30;0.30;;;12.10;90.50;;;;;;5050017;28;20037;-78
2022/11/06 07:28:08;;;;;;;0.20;0.20;;;12.20;90.00;;;;;;5034759;28;20058;-78
2022/11/06 07:30:35;;;;;;;0.22;0.22;;;12.20;90.30;;;;;;5034578;28;20026;-79
2022/11/06 07:33:02;;;;;;;0.30;0.30;;;12.30;90.50;;;;;;5034368;28;20033;-78
2022/11/06 07:35:28;;;;;;;0.20;0.20;;;12.30;90.30;;;;;;5034656;28;20029;-78
2022/11/06 07:37:54;;;;;;;0.70;0.40;;;12.40;90.20;;;;;;5016811;28;20029;-78
2022/11/06 07:40:20;;;;;;;1.02;0.30;;;12.40;90.70;;;;;;5016715;28;20018;-78
2022/11/06 07:42:46;;;;;;;0.20;0.20;;;12.40;90.40;;;;;;5034627;28;20088;-78
2022/11/06 07:45:11;;;;;;;0.30;0.30;;;12.50;90.20;;;;;;5016592;28;20032;-78
2022/11/06 07:47:37;;;;;;;0.20;0.20;;;12.50;89.50;;;;;;5034250;28;20034;-78
2022/11/06 07:50:03;;;;;;;0.20;0.20;;;12.60;89.50;;;;;;5034513;28;20025;-78
2022/11/06 07:52:29;;;;;;;0.20;0.20;;;12.70;89.10;;;;;;5049472;28;20034;-79
2022/11/06 07:54:55;;;;;;;0.20;0.20;;;12.70;88.90;;;;;;5034093;28;20044;-78
2022/11/06 07:57:21;;;;;;;0.50;0.28;;;12.80;88.60;;;;;;5034429;28;20033;-79
2022/11/06 07:59:46;;;;;;;0.30;0.20;;;12.90;88.90;;;;;;5034145;28;20052;-79
2022/11/06 08:02:12;;;;;;;0.30;0.30;;;12.90;88.90;;;;;;5049398;28;20606;-79
2022/11/06 08:04:38;;;;;;;0.35;0.35;;;13.00;88.60;;;;;;5033909;28;20032;-79
2022/11/06 08:07:04;;;;;;;0.30;0.30;;;13.00;89.10;;;;;;5049369;28;20049;-79
2022/11/06 08:09:30;;;;;;;0.40;0.40;;;13.10;89.00;;;;;;5033953;28;20110;-78
2022/11/06 08:11:56;;;;;;;0.22;0.22;;;13.10;90.70;;;;;;5049440;28;20025;-79
2022/11/06 08:14:21;;;;;;;0.35;0.35;;;13.10;90.70;;;;;;5033793;28;20060;-79
2022/11/06 08:16:47;;;;;;;0.30;0.30;;;13.20;90.10;;;;;;5044190;28;20013;-78
2022/11/06 08:19:13;;;;;;;0.20;0.20;;;13.20;90.00;;;;;;5035778;28;20382;-79
2022/11/06 08:21:39;;;;;;;0.65;0.32;;;13.20;90.70;;;;;;5053642;28;20021;-79
2022/11/06 08:24:05;;;;;;;1.85;0.40;;;13.20;91.10;;;;;;5036122;28;20503;-79
2022/11/06 08:26:31;;;;;;;1.85;0.43;;;13.30;91.60;;;;;;5053479;28;20040;-79
2022/11/06 08:28:57;;;;;;;0.30;0.30;;;13.30;91.30;;;;;;5035538;28;20130;-79
2022/11/06 08:31:23;;;;;;;0.30;0.30;;;13.40;90.80;;;;;;5053640;28;20021;-79
2022/11/06 08:33:49;;;;;;;0.30;0.30;;;13.40;91.40;;;;;;5035547;28;20032;-79
2022/11/06 08:36:15;;;;;;;0.50;0.50;;;13.40;90.50;;;;;;5045885;28;20437;-78
2022/11/06 08:38:41;;;;;;;0.40;0.40;;;13.40;90.00;;;;;;5035567;28;20390;-79
2022/11/06 08:41:10;;;;;;;0.32;0.32;;;13.50;91.00;;;;;;5053354;28;20068;-79
2022/11/06 08:43:36;;;;;;;0.43;0.43;;;13.50;91.20;;;;;;5053384;28;20257;-79
2022/11/06 08:46:04;;;;;;;0.93;0.60;;;13.50;91.70;;;;;;5035192;28;20550;-79
2022/11/06 08:48:30;;;;;;;0.60;0.60;;;13.50;92.90;;;;;;5053329;28;20029;-79
2022/11/06 08:50:56;;;;;;;1.17;0.50;;;13.60;93.60;;;;;;5053102;28;20554;-79
2022/11/06 08:53:22;;;;;;;0.30;0.30;;;13.60;94.80;;;;;;5052967;28;20025;-79
2022/11/06 08:55:47;;;;;;;2.15;0.60;;;13.70;94.40;;;;;;5043300;28;20378;-79
2022/11/06 08:58:13;;;;;;;7.75;0.65;;;13.70;93.20;;;;;;5042619;28;20022;-79
2022/11/06 09:00:39;;;;;;;0.50;0.50;;;13.80;92.60;;;;;;5041396;28;20092;-79
2022/11/06 09:03:12;;;;;;;0.40;0.40;;;13.80;93.80;;;;;;5025553;28;20037;-79
2022/11/06 09:05:41;;;;;;;0.75;0.30;;;13.80;91.00;;;;;;5042783;28;20028;-78
2022/11/06 09:08:08;;;;;;;0.65;0.65;;;13.90;87.50;;;;;;5021427;28;20028;-78
2022/11/06 09:10:36;;;;;;;0.50;0.50;;;13.90;87.70;;;;;;5042231;28;20108;-79
2022/11/06 09:13:03;;;;;;;0.40;0.40;;;13.90;90.40;;;;;;5043055;28;20488;-78
2022/11/06 09:15:29;;;;;;;0.80;0.80;;;13.90;92.70;;;;;;5042898;28;20048;-79
2022/11/06 09:17:54;;;;;;;4.43;0.77;;;13.90;93.10;;;;;;5024468;28;20041;-79
2022/11/06 09:20:22;;;;;;;2.47;1.58;;;14.00;91.80;;;;;;5026263;28;20025;-79
2022/11/06 09:22:48;;;;;;;2.25;2.05;;;14.00;92.20;;;;;;5039051;28;20025;-79
2022/11/06 09:25:14;;;;;;;1.88;1.77;;;14.10;91.00;;;;;;5041791;28;20036;-78
2022/11/06 09:27:48;;;;;;;3.10;2.40;;;14.10;92.00;;;;;;5017984;28;20052;-79
2022/11/06 09:30:19;;;;;;;4.13;2.25;;;14.10;92.80;;;;;;5033660;28;20120;-79
2022/11/06 09:33:04;;;;;;;5.70;3.97;;;14.20;92.80;;;;;;5033191;28;20383;-78
2022/11/06 09:35:32;;;;;;;9.10;5.57;;;14.30;95.90;;;;;;5015944;28;20033;-79
2022/11/06 09:38:03;;;;;;;7.47;4.55;;;14.40;96.20;;;;;;5015820;28;20030;-78
2022/11/06 09:40:42;;;;;;;6.70;5.18;;;14.50;96.10;;;;;;5033338;28;20502;-79
2022/11/06 09:43:26;;;;;;;9.93;5.38;;;14.40;95.80;;;;;;5033658;28;20156;-79
2022/11/06 09:45:53;;;;;;;8.32;5.07;;;14.40;97.80;;;;;;5015768;28;20187;-79
2022/11/06 09:48:27;;;;;;;7.53;4.97;;;14.40;98.80;;;;;;5033544;28;20391;-79
2022/11/06 09:51:12;;;;;;;6.97;4.70;;;14.50;97.90;;;;;;5033158;28;20116;-79
2022/11/06 09:53:54;;;;;;;8.52;4.78;;;14.50;97.00;;;;;;5033215;28;20022;-79
2022/11/06 09:56:24;;;;;;;7.93;4.93;;;14.60;95.60;;;;;;5039800;28;20028;-78
2022/11/06 09:58:51;;;;;;;11.63;6.15;;;14.70;95.30;;;;;;5020203;28;20075;-78
2022/11/06 10:01:22;;;;;;;8.07;5.45;;;14.70;94.30;;;;;;5029422;28;20108;-79
2022/11/06 10:03:58;;;;;;;10.67;4.90;;;14.60;93.70;;;;;;5012211;28;20391;-78
2022/11/06 10:06:24;;;;;;;10.02;5.32;;;14.60;93.50;;;;;;5030757;28;20036;-78
2022/11/06 10:08:54;;;;;;;9.02;4.63;;;14.70;93.50;;;;;;5030585;28;20040;-79
2022/11/06 10:11:46;;;;;;;10.45;5.63;;;14.70;95.00;;;;;;5028740;28;20075;-79
2022/11/06 10:14:40;;;;;;;8.48;4.45;;;14.70;94.70;;;;;;5027800;28;20049;-78
2022/11/06 10:17:12;;;;;;;6.97;4.05;;;14.70;95.90;;;;;;4996931;28;20040;-78
2022/11/06 10:20:05;;;;;;;4.20;3.10;;;14.70;95.30;;;;;;5021054;28;20028;-78
2022/11/06 10:22:40;;;;;;;5.45;3.53;;;14.80;94.20;;;;;;5034426;28;20021;-78
2022/11/06 10:25:39;;;;;;;7.15;3.53;;;14.90;94.00;;;;;;5044792;28;20025;-78
2022/11/06 10:28:14;;;;;;;4.68;3.60;;;14.90;91.30;;;;;;5021064;28;20136;-78
2022/11/06 10:30:53;;;;;;;6.55;3.83;;;14.90;90.70;;;;;;5012235;28;20022;-79
2022/11/06 10:33:44;;;;;;;4.68;3.30;;;14.90;90.40;;;;;;5011712;28;20464;-79
2022/11/06 10:36:19;;;;;;;3.75;3.05;;;15.00;89.90;;;;;;4986260;28;20665;-79
2022/11/06 10:38:54;;;;;;;4.15;2.97;;;14.90;89.20;;;;;;4993892;28;20025;-79
2022/11/06 10:41:27;;;;;;;3.72;2.58;;;15.00;89.70;;;;;;5011301;28;20026;-79
2022/11/06 10:44:12;;;;;;;2.67;2.25;;;15.00;90.00;;;;;;5133464;23;20196;-74
2022/11/06 10:46:47;;;;;;;3.47;2.88;;;15.00;90.50;;;;;;5015346;28;20029;-75
2022/11/06 10:49:28;;;;;;;3.70;2.58;;;15.10;90.40;;;;;;5033866;28;20026;-75
2022/11/06 10:52:32;;;;;;;2.92;2.22;;;15.10;90.90;;;;;;5049118;28;20032;-75
2022/11/06 10:55:00;;;;;;;3.28;2.55;;;15.10;89.50;;;;;;5033182;28;20641;-75
2022/11/06 10:57:57;;;;;;;3.50;1.80;;;15.10;90.40;;;;;;5014529;28;20116;-75
2022/11/06 11:00:24;;;;;;;2.47;2.28;;;15.20;91.70;;;;;;5014233;28;20278;-75
2022/11/06 11:02:56;;;;;;;2.35;2.15;;;15.20;83.50;;;;;;5031397;28;20053;-78
2022/11/06 11:05:24;;;;;;;1.80;1.58;;;15.30;83.50;;;;;;5030070;28;20513;-78
2022/11/06 11:07:51;;;;;;;2.38;1.77;;;15.30;86.00;;;;;;5030618;28;20032;-78
2022/11/06 11:10:22;;;;;;;2.05;1.80;;;15.30;87.80;;;;;;5013370;28;20275;-78
2022/11/06 11:13:00;;;;;;;2.33;1.70;;;15.30;88.10;;;;;;5031079;28;20029;-78
2022/11/06 11:15:30;;;;;;;2.13;1.67;;;15.40;90.30;;;;;;5030641;28;20047;-77
2022/11/06 11:18:11;;;;;;;1.90;1.80;;;15.40;84.10;;;;;;5012907;28;20049;-78
2022/11/06 11:20:39;;;;;;;1.77;1.45;;;15.40;82.70;;;;;;5030522;28;20032;-78
2022/11/06 11:23:05;;;;;;;2.17;1.90;;;15.40;79.60;;;;;;5030636;28;20026;-78
2022/11/06 11:25:31;;;;;;;1.65;1.45;;;15.40;84.40;;;;;;5045161;28;20040;-78
2022/11/06 11:27:56;;;;;;;2.08;1.88;;;15.50;84.10;;;;;;5045277;28;20501;-78
2022/11/06 11:30:25;;;;;;;3.33;1.65;;;15.60;83.00;;;;;;5032257;28;20398;-77
2022/11/06 11:33:10;;;;;;;1.48;1.38;;;15.60;78.40;;;;;;5030654;28;20332;-78
2022/11/06 11:35:37;;;;;;;1.48;1.38;;;15.60;78.70;;;;;;5032354;28;20251;-78
2022/11/06 11:38:12;;;;;;;1.08;0.98;;;15.60;78.70;;;;;;5031645;28;20025;-77
2022/11/06 11:40:38;;;;;;;1.17;0.95;;;15.70;79.80;;;;;;5030624;28;20029;-78
2022/11/06 11:43:26;;;;;;;1.35;1.17;;;15.70;81.90;;;;;;5031509;28;20076;-78
2022/11/06 11:46:13;;;;;;;0.98;0.98;;;15.70;83.40;;;;;;5030775;28;20519;-78
2022/11/06 11:48:50;;;;;;;2.03;1.08;;;15.80;81.10;;;;;;5031615;28;20168;-77
2022/11/06 11:51:35;;;;;;;1.05;0.95;;;15.80;77.10;;;;;;5030631;28;20100;-77
2022/11/06 11:54:17;;;;;;;0.93;0.85;;;15.80;77.80;;;;;;5031690;28;20057;-78
2022/11/06 11:56:57;;;;;;;1.20;0.85;;;15.80;78.10;;;;;;5030880;28;20338;-78
2022/11/06 11:59:29;;;;;;;1.27;0.80;;;15.90;78.00;;;;;;5013242;28;20049;-78
2022/11/06 12:02:00;;;;;;;0.70;0.70;;;15.80;74.90;;;;;;5031047;28;20025;-78
2022/11/06 12:04:37;;;;;;;0.70;0.70;;;15.90;77.50;;;;;;5030634;28;20121;-77
2022/11/06 12:07:07;;;;;;;0.95;0.73;;;15.90;79.70;;;;;;5010505;28;20034;-78
2022/11/06 12:09:40;;;;;;;2.67;0.90;;;15.90;77.80;;;;;;5025215;28;20086;-78
2022/11/06 12:12:38;;;;;;;0.57;0.57;;;15.90;78.00;;;;;;5053884;28;20109;-78
2022/11/06 12:15:22;;;;;;;0.80;0.80;;;15.90;75.40;;;;;;5052927;28;20051;-78
2022/11/06 12:18:02;;;;;;;0.60;0.60;;;15.90;76.60;;;;;;5035616;28;20064;-78
2022/11/06 12:20:56;;;;;;;1.30;0.60;;;15.90;78.60;;;;;;5053495;28;20628;-78
2022/11/06 12:23:40;;;;;;;1.13;0.77;;;15.80;78.70;;;;;;5035436;28;20029;-78
2022/11/06 12:26:32;;;;;;;1.02;0.93;;;15.80;78.20;;;;;;5053316;28;20029;-78
2022/11/06 12:29:10;;;;;;;1.40;1.30;;;15.80;80.50;;;;;;5052984;28;20017;-78
2022/11/06 12:31:57;;;;;;;2.17;1.58;;;15.80;84.10;;;;;;5053676;28;20107;-78
2022/11/06 12:34:39;;;;;;;2.42;1.95;;;15.90;83.50;;;;;;5034974;28;20025;-78
2022/11/06 12:37:17;;;;;;;2.40;2.20;;;15.90;86.30;;;;;;5013195;28;20061;-78
2022/11/06 12:39:51;;;;;;;2.72;2.15;;;15.90;87.80;;;;;;5013033;28;20026;-78
2022/11/06 12:42:19;;;;;;;3.13;2.83;;;15.90;88.30;;;;;;4995436;28;20475;-78
2022/11/06 12:44:46;;;;;;;3.40;2.40;;;15.90;87.60;;;;;;5013119;28;20037;-78
2022/11/06 12:47:28;;;;;;;3.38;2.17;;;15.90;84.40;;;;;;4995876;28;20635;-78
2022/11/06 12:50:21;;;;;;;2.45;2.03;;;15.90;83.70;;;;;;5013358;28;20498;-78
2022/11/06 12:52:55;;;;;;;5.13;2.25;;;15.90;82.10;;;;;;5013011;28;20514;-78
2022/11/06 12:55:46;;;;;;;3.88;2.42;;;15.80;83.60;;;;;;5013116;28;20044;-78
2022/11/06 12:58:42;;;;;;;2.75;2.22;;;15.80;81.80;;;;;;5028016;28;20026;-78
2022/11/06 13:01:39;;;;;;;2.42;1.90;;;15.80;83.80;;;;;;5012557;28;20026;-78
2022/11/06 13:04:22;;;;;;;2.13;1.55;;;15.80;83.90;;;;;;5013101;28;20040;-78
2022/11/06 13:07:24;;;;;;;3.35;2.08;;;15.80;83.60;;;;;;5011793;28;20026;-75
2022/11/06 13:10:01;;;;;;;2.33;1.60;;;15.80;79.70;;;;;;5008078;28;20046;-75
2022/11/06 13:12:52;;;;;;;3.60;1.73;;;15.80;83.00;;;;;;5011373;28;20087;-75
2022/11/06 13:16:02;;;;;;;2.85;2.38;;;15.80;81.00;;;;;;5011123;28;20042;-75
2022/11/06 13:18:38;;;;;;;3.08;1.90;;;15.80;81.50;;;;;;4997797;28;20034;-75
2022/11/06 13:21:17;;;;;;;2.55;2.15;;;15.80;84.20;;;;;;5011215;28;20022;-75
2022/11/06 13:23:49;;;;;;;1.90;1.58;;;15.80;85.60;;;;;;5026324;28;20025;-75
2022/11/06 13:26:30;;;;;;;2.50;1.88;;;15.80;83.10;;;;;;5011385;28;20610;-76
2022/11/06 13:28:59;;;;;;;2.10;1.70;;;15.80;85.70;;;;;;5011926;28;20363;-75
2022/11/06 13:31:32;;;;;;;1.80;1.60;;;15.80;86.00;;;;;;5027852;28;20029;-75